createdAt,value
2018-05-02T00:02:25.921Z,51.60
2018-05-02T00:04:54.215Z,51.70
2018-05-02T00:07:22.548Z,53.00
2018-05-02T00:09:51.021Z,52.10
2018-05-02T00:12:19.440Z,51.80
2018-05-02T00:14:47.940Z,52.20
2018-05-02T00:17:16.277Z,52.30
2018-05-02T00:19:44.575Z,52.50
2018-05-02T00:22:12.865Z,52.40
2018-05-02T00:24:41.182Z,51.40
2018-05-02T00:27:10.261Z,52.20
2018-05-02T00:29:38.627Z,52.20
2018-05-02T00:32:07.916Z,51.70
2018-05-02T00:34:36.242Z,51.70
2018-05-02T00:37:04.635Z,51.00
2018-05-02T00:39:32.938Z,51.40
2018-05-02T00:42:01.507Z,51.20
2018-05-02T00:44:29.823Z,51.30
2018-05-02T00:46:58.220Z,51.10
2018-05-02T00:49:27.401Z,52.30
2018-05-02T00:51:55.702Z,52.30
2018-05-02T00:54:24.798Z,53.00
2018-05-02T00:56:54.014Z,52.80
2018-05-02T00:59:22.302Z,52.80
2018-05-02T01:01:50.608Z,53.30
2018-05-02T01:04:19.021Z,53.10
2018-05-02T01:06:48.111Z,52.70
2018-05-02T01:09:17.957Z,52.30
2018-05-02T01:11:46.352Z,52.20
2018-05-02T01:14:14.672Z,52.70
2018-05-02T01:16:43.080Z,53.00
2018-05-02T01:19:11.421Z,53.60
2018-05-02T01:21:39.732Z,52.50
2018-05-02T01:24:08.186Z,53.70
2018-05-02T01:26:36.771Z,53.40
2018-05-02T01:29:05.071Z,53.20
2018-05-02T01:31:34.318Z,52.60
2018-05-02T01:34:02.602Z,52.60
2018-05-02T01:36:30.965Z,51.80
2018-05-02T01:38:59.299Z,52.40
2018-05-02T01:41:28.361Z,52.20
2018-05-02T01:43:57.506Z,52.80
2018-05-02T01:46:25.857Z,52.00
2018-05-02T01:49:12.587Z,52.10
2018-05-02T01:51:40.852Z,51.90
2018-05-02T01:54:11.055Z,52.10
2018-05-02T01:56:40.135Z,51.80
2018-05-02T01:59:08.415Z,51.70
2018-05-02T02:01:36.825Z,52.30
2018-05-02T02:04:05.876Z,52.10
2018-05-02T02:06:34.257Z,52.20
2018-05-02T02:09:02.671Z,51.90
2018-05-02T02:11:30.982Z,52.60
2018-05-02T02:13:59.237Z,51.60
2018-05-02T02:16:27.653Z,52.00
2018-05-02T02:18:55.931Z,52.10
2018-05-02T02:21:24.392Z,56.40
2018-05-02T02:23:52.718Z,56.70
2018-05-02T02:26:21.037Z,54.20
2018-05-02T02:28:49.450Z,53.80
2018-05-02T02:31:17.872Z,53.40
2018-05-02T02:33:46.987Z,52.60
2018-05-02T02:36:15.275Z,52.60
2018-05-02T02:38:43.633Z,52.90
2018-05-02T02:41:12.034Z,52.70
2018-05-02T02:43:40.547Z,53.20
2018-05-02T02:46:08.963Z,53.30
2018-05-02T02:48:38.116Z,54.20
2018-05-02T02:51:06.517Z,54.20
2018-05-02T02:53:34.808Z,54.10
2018-05-02T02:56:03.195Z,53.40
2018-05-02T02:58:31.557Z,53.50
2018-05-02T03:01:00.101Z,53.90
2018-05-02T03:03:28.658Z,53.70
2018-05-02T03:05:56.974Z,56.00
2018-05-02T03:08:25.280Z,56.20
2018-05-02T03:10:54.478Z,52.90
2018-05-02T03:13:23.552Z,53.40
2018-05-02T03:15:51.941Z,53.40
2018-05-02T03:18:20.264Z,54.50
2018-05-02T03:20:48.962Z,53.90
2018-05-02T03:23:17.486Z,54.60
2018-05-02T03:25:45.826Z,54.30
2018-05-02T03:28:14.106Z,53.60
2018-05-02T03:30:42.418Z,53.60
2018-05-02T03:33:11.511Z,54.60
2018-05-02T03:35:39.803Z,54.60
2018-05-02T03:38:08.838Z,53.80
2018-05-02T03:40:37.118Z,53.70
2018-05-02T03:43:05.408Z,53.80
2018-05-02T03:45:33.703Z,53.90
2018-05-02T03:48:01.988Z,54.70
2018-05-02T03:50:30.701Z,55.10
2018-05-02T03:52:58.961Z,54.20
2018-05-02T03:55:28.202Z,54.20
2018-05-02T03:57:56.608Z,54.20
2018-05-02T04:00:42.741Z,53.40
2018-05-02T04:03:29.507Z,54.60
2018-05-02T04:09:07.021Z,54.20
2018-05-02T04:11:35.327Z,53.00
2018-05-02T04:14:04.519Z,53.90
2018-05-02T04:16:32.868Z,53.90
2018-05-02T04:19:01.256Z,53.10
2018-05-02T04:21:29.681Z,53.60
2018-05-02T04:23:58.245Z,54.00
2018-05-02T04:26:27.300Z,53.70
2018-05-02T04:28:55.691Z,53.70
2018-05-02T04:31:23.954Z,53.60
2018-05-02T04:33:52.492Z,52.90
2018-05-02T04:36:21.662Z,53.20
2018-05-02T04:38:51.848Z,54.30
2018-05-02T04:41:20.117Z,53.90
2018-05-02T04:43:48.392Z,54.00
2018-05-02T04:46:16.677Z,54.10
2018-05-02T04:48:44.946Z,53.90
2018-05-02T04:51:13.262Z,53.20
2018-05-02T04:53:41.591Z,54.20
2018-05-02T04:56:09.936Z,53.50
2018-05-02T04:58:39.143Z,54.40
2018-05-02T05:01:08.371Z,54.10
2018-05-02T05:03:36.744Z,54.10
2018-05-02T05:06:05.081Z,53.50
2018-05-02T05:08:34.432Z,54.20
2018-05-02T05:11:02.727Z,54.10
2018-05-02T05:13:31.018Z,54.00
2018-05-02T05:15:59.422Z,53.90
2018-05-02T05:18:28.588Z,54.40
2018-05-02T05:20:57.954Z,55.00
2018-05-02T05:23:26.303Z,54.30
2018-05-02T05:25:54.637Z,54.80
2018-05-02T05:28:23.041Z,54.50
2018-05-02T05:30:52.252Z,53.70
2018-05-02T05:33:21.392Z,53.80
2018-05-02T05:35:49.929Z,53.80
2018-05-02T05:38:19.029Z,53.60
2018-05-02T05:40:47.418Z,53.50
2018-05-02T05:43:15.709Z,52.40
2018-05-02T05:45:44.004Z,54.00
2018-05-02T05:48:12.369Z,53.80
2018-05-02T05:50:40.677Z,53.30
2018-05-02T05:53:08.967Z,52.50
2018-05-02T05:55:37.579Z,51.80
2018-05-02T05:58:06.811Z,50.40
2018-05-02T06:00:35.094Z,50.40
2018-05-02T06:03:03.483Z,51.30
2018-05-02T06:05:31.909Z,51.00
2018-05-02T06:08:00.337Z,51.30
2018-05-02T06:10:29.427Z,49.90
2018-05-02T06:12:57.742Z,49.90
2018-05-02T06:15:26.814Z,47.90
2018-05-02T06:17:55.190Z,47.80
2018-05-02T06:20:23.634Z,47.30
2018-05-02T06:22:51.937Z,47.20
2018-05-02T06:25:20.404Z,47.00
2018-05-02T06:27:48.679Z,46.40
2018-05-02T06:30:17.034Z,45.80
2018-05-02T06:32:46.119Z,45.40
2018-05-02T06:35:14.612Z,45.40
2018-05-02T06:37:43.074Z,45.40
2018-05-02T06:40:11.392Z,45.00
2018-05-02T06:42:39.668Z,44.80
2018-05-02T06:45:07.974Z,44.00
2018-05-02T06:47:36.282Z,45.10
2018-05-02T06:50:05.351Z,44.70
2018-05-02T06:52:33.659Z,44.50
2018-05-02T06:55:02.829Z,43.30
2018-05-02T06:57:31.162Z,43.20
2018-05-02T06:59:59.578Z,43.90
2018-05-02T07:02:28.910Z,42.10
2018-05-02T07:04:58.055Z,43.50
2018-05-02T07:07:26.668Z,43.50
2018-05-02T07:09:55.755Z,43.10
2018-05-02T07:12:24.135Z,43.10
2018-05-02T07:14:52.503Z,41.80
2018-05-02T07:17:20.805Z,42.40
2018-05-02T07:19:50.123Z,42.50
2018-05-02T07:22:18.471Z,42.50
2018-05-02T07:24:46.807Z,42.90
2018-05-02T07:27:15.122Z,43.90
2018-05-02T07:29:43.561Z,41.80
2018-05-02T07:32:11.903Z,42.10
2018-05-02T07:34:41.005Z,40.30
2018-05-02T07:37:10.059Z,40.80
2018-05-02T07:39:38.410Z,40.80
2018-05-02T07:42:06.734Z,40.90
2018-05-02T07:44:35.968Z,40.60
2018-05-02T07:47:04.603Z,40.50
2018-05-02T07:49:32.973Z,41.40
2018-05-02T07:52:01.293Z,40.40
2018-05-02T07:54:29.772Z,40.40
2018-05-02T07:56:58.174Z,39.90
2018-05-02T07:59:26.553Z,40.20
2018-05-02T08:01:54.919Z,40.20
2018-05-02T08:04:23.402Z,39.10
2018-05-02T08:06:51.693Z,39.30
2018-05-02T08:09:20.227Z,37.90
2018-05-02T08:11:48.592Z,38.70
2018-05-02T08:14:17.239Z,37.60
2018-05-02T08:16:45.513Z,38.00
2018-05-02T08:19:13.870Z,37.50
2018-05-02T08:21:42.193Z,37.10
2018-05-02T08:24:10.585Z,37.90
2018-05-02T08:26:39.097Z,36.20
2018-05-02T08:29:07.551Z,36.90
2018-05-02T08:31:36.060Z,36.40
2018-05-02T08:34:05.153Z,35.80
2018-05-02T08:36:34.353Z,35.50
2018-05-02T08:39:03.466Z,35.90
2018-05-02T08:41:31.909Z,35.80
2018-05-02T08:44:01.089Z,36.50
2018-05-02T08:46:29.543Z,36.50
2018-05-02T08:48:57.871Z,37.40
2018-05-02T08:51:26.414Z,36.50
2018-05-02T08:53:54.929Z,35.90
2018-05-02T08:56:23.284Z,34.90
2018-05-02T08:58:51.708Z,35.40
2018-05-02T09:01:20.144Z,34.90
2018-05-02T09:03:49.017Z,35.90
2018-05-02T09:06:18.230Z,34.70
2018-05-02T09:08:46.712Z,34.70
2018-05-02T09:11:16.014Z,34.00
2018-05-02T09:13:44.314Z,33.90
2018-05-02T09:16:13.452Z,34.00
2018-05-02T09:18:41.829Z,34.00
2018-05-02T09:21:10.443Z,34.90
2018-05-02T09:23:38.964Z,34.40
2018-05-02T09:26:08.083Z,33.90
2018-05-02T09:28:36.448Z,33.80
2018-05-02T09:31:04.735Z,34.20
2018-05-02T09:33:33.147Z,32.00
2018-05-02T09:36:01.570Z,33.10
2018-05-02T09:38:30.703Z,31.00
2018-05-02T09:40:59.038Z,31.00
2018-05-02T09:43:29.144Z,31.90
2018-05-02T09:45:57.644Z,31.90
2018-05-02T09:48:26.719Z,32.20
2018-05-02T09:50:55.193Z,32.20
2018-05-02T09:53:23.555Z,33.50
2018-05-02T09:55:51.850Z,30.30
2018-05-02T09:58:20.286Z,29.90
2018-05-02T10:00:48.654Z,30.10
2018-05-02T10:03:16.983Z,29.90
2018-05-02T10:05:45.498Z,29.20
2018-05-02T10:08:13.959Z,29.50
2018-05-02T10:10:42.324Z,29.90
2018-05-02T10:13:10.710Z,29.80
2018-05-02T10:15:40.931Z,30.50
2018-05-02T10:18:10.015Z,30.80
2018-05-02T10:20:38.349Z,30.90
2018-05-02T10:23:06.659Z,29.90
2018-05-02T10:25:34.953Z,30.00
2018-05-02T10:28:03.337Z,29.50
2018-05-02T10:30:32.435Z,30.30
2018-05-02T10:33:01.632Z,29.10
2018-05-02T10:35:30.690Z,28.90
2018-05-02T10:37:59.038Z,28.90
2018-05-02T10:40:27.368Z,29.20
2018-05-02T10:42:55.680Z,29.90
2018-05-02T10:45:24.095Z,29.30
2018-05-02T10:47:52.419Z,29.50
2018-05-02T10:50:21.713Z,30.10
2018-05-02T10:52:50.283Z,30.10
2018-05-02T10:55:18.696Z,33.10
2018-05-02T10:57:47.812Z,28.50
2018-05-02T11:00:16.306Z,28.50
2018-05-02T11:02:44.588Z,29.40
2018-05-02T11:05:13.124Z,28.90
2018-05-02T11:07:42.221Z,28.60
2018-05-02T11:10:11.490Z,29.00
2018-05-02T11:12:39.948Z,29.00
2018-05-02T11:15:08.301Z,29.60
2018-05-02T11:17:36.677Z,28.60
2018-05-02T11:20:04.974Z,29.50
2018-05-02T11:22:33.319Z,29.10
2018-05-02T11:25:02.429Z,29.20
2018-05-02T11:27:30.768Z,29.20
2018-05-02T11:29:59.104Z,29.60
2018-05-02T11:32:27.409Z,29.70
2018-05-02T11:34:55.814Z,30.50
2018-05-02T11:37:24.891Z,29.30
2018-05-02T11:39:53.258Z,29.20
2018-05-02T11:42:21.569Z,29.10
2018-05-02T11:44:50.879Z,30.00
2018-05-02T11:47:19.384Z,30.00
2018-05-02T11:49:47.740Z,28.00
2018-05-02T11:52:16.028Z,28.50
2018-05-02T11:54:44.341Z,27.60
2018-05-02T11:57:12.664Z,28.00
2018-05-02T11:59:41.021Z,28.10
2018-05-02T12:02:10.129Z,29.70
2018-05-02T12:04:39.370Z,27.40
2018-05-02T12:07:07.779Z,27.40
2018-05-02T12:09:36.115Z,27.70
2018-05-02T12:12:04.511Z,27.70
2018-05-02T12:14:33.060Z,28.60
2018-05-02T12:17:01.399Z,28.60
2018-05-02T12:19:29.900Z,28.10
2018-05-02T12:21:59.048Z,28.00
2018-05-02T12:24:28.085Z,26.60
2018-05-02T12:26:57.465Z,26.80
2018-05-02T12:29:25.823Z,26.80
2018-05-02T12:31:54.260Z,27.30
2018-05-02T12:34:22.660Z,27.60
2018-05-02T12:36:51.159Z,28.00
2018-05-02T12:39:19.455Z,27.40
2018-05-02T12:41:47.900Z,28.00
2018-05-02T12:44:16.193Z,27.00
2018-05-02T12:46:44.568Z,27.40
2018-05-02T12:49:13.301Z,26.60
2018-05-02T12:51:41.674Z,26.40
2018-05-02T12:54:10.889Z,27.20
2018-05-02T12:56:40.039Z,26.30
2018-05-02T12:59:08.331Z,26.30
2018-05-02T13:01:36.839Z,26.20
2018-05-02T13:04:06.026Z,26.70
2018-05-02T13:06:35.146Z,25.90
2018-05-02T13:09:03.445Z,25.80
2018-05-02T13:11:31.898Z,26.40
2018-05-02T13:14:00.288Z,26.20
2018-05-02T13:16:29.848Z,25.50
2018-05-02T13:18:58.376Z,25.50
2018-05-02T13:21:26.691Z,26.30
2018-05-02T13:23:55.275Z,26.60
2018-05-02T13:26:23.700Z,26.30
2018-05-02T13:28:52.251Z,26.90
2018-05-02T13:31:22.100Z,26.10
2018-05-02T13:33:50.666Z,26.10
2018-05-02T13:36:19.884Z,26.10
2018-05-02T13:38:48.236Z,26.10
2018-05-02T13:41:17.403Z,26.00
2018-05-02T13:43:45.737Z,26.00
2018-05-02T13:46:14.156Z,26.50
2018-05-02T13:48:42.445Z,27.30
2018-05-02T13:51:11.670Z,26.10
2018-05-02T13:53:40.853Z,26.90
2018-05-02T13:56:10.007Z,26.40
2018-05-02T13:58:38.471Z,26.30
2018-05-02T14:01:06.979Z,26.70
2018-05-02T14:03:35.317Z,27.20
2018-05-02T14:06:03.624Z,27.40
2018-05-02T14:08:32.018Z,27.10
2018-05-02T14:11:00.296Z,26.60
2018-05-02T14:13:28.650Z,25.90
2018-05-02T14:15:57.028Z,25.70
2018-05-02T14:18:25.309Z,25.20
2018-05-02T14:20:53.660Z,25.70
2018-05-02T14:23:22.145Z,24.90
2018-05-02T14:25:50.541Z,25.80
2018-05-02T14:28:19.009Z,26.80
2018-05-02T14:30:47.339Z,26.50
2018-05-02T14:33:15.686Z,26.60
2018-05-02T14:35:43.981Z,26.00
2018-05-02T14:38:12.478Z,26.30
2018-05-02T14:40:40.858Z,25.70
2018-05-02T14:43:09.274Z,25.60
2018-05-02T14:45:37.604Z,26.20
2018-05-02T14:48:07.725Z,26.00
2018-05-02T14:50:36.116Z,26.00
2018-05-02T14:53:04.541Z,25.40
2018-05-02T14:55:33.004Z,25.80
2018-05-02T14:58:01.561Z,25.00
2018-05-02T15:00:30.681Z,25.50
2018-05-02T15:02:59.114Z,25.50
2018-05-02T15:05:27.688Z,25.30
2018-05-02T15:07:56.155Z,24.90
2018-05-02T15:10:24.811Z,25.60
2018-05-02T15:12:53.181Z,25.30
2018-05-02T15:15:22.310Z,24.80
2018-05-02T15:17:50.710Z,24.80
2018-05-02T15:20:19.316Z,25.10
2018-05-02T15:22:47.640Z,26.40
2018-05-02T15:25:16.423Z,25.80
2018-05-02T15:27:44.782Z,24.50
2018-05-02T15:30:13.919Z,25.10
2018-05-02T15:32:42.395Z,25.10
2018-05-02T15:35:10.797Z,25.00
2018-05-02T15:37:39.135Z,24.10
2018-05-02T15:40:07.702Z,25.10
2018-05-02T15:42:36.847Z,24.70
2018-05-02T15:45:05.188Z,24.70
2018-05-02T15:47:33.571Z,23.80
2018-05-02T15:50:01.870Z,24.20
2018-05-02T15:52:31.664Z,24.80
2018-05-02T15:55:00.121Z,24.80
2018-05-02T15:57:28.461Z,24.20
2018-05-02T15:59:56.780Z,24.40
2018-05-02T16:02:26.007Z,24.60
2018-05-02T16:04:54.383Z,24.60
2018-05-02T16:07:22.725Z,24.10
2018-05-02T16:09:52.031Z,24.00
2018-05-02T16:12:21.969Z,24.20
2018-05-02T16:14:50.805Z,24.20
2018-05-02T16:17:19.142Z,24.70
2018-05-02T16:19:47.743Z,23.90
2018-05-02T16:22:16.200Z,24.60
2018-05-02T16:24:44.750Z,24.50
2018-05-02T16:27:14.105Z,23.40
2018-05-02T16:29:42.478Z,23.40
2018-05-02T16:32:14.773Z,23.30
2018-05-02T16:34:43.142Z,23.90
2018-05-02T16:37:11.625Z,24.40
2018-05-02T16:39:41.414Z,23.90
2018-05-02T16:42:09.801Z,24.00
2018-05-02T16:44:38.124Z,24.10
2018-05-02T16:47:07.230Z,24.10
2018-05-02T16:49:36.372Z,25.20
2018-05-02T16:52:04.772Z,25.20
2018-05-02T16:54:33.171Z,25.30
2018-05-02T16:57:01.696Z,25.10
2018-05-02T16:59:30.064Z,25.20
2018-05-02T17:02:00.487Z,26.20
2018-05-02T17:04:29.056Z,26.20
2018-05-02T17:06:57.354Z,25.90
2018-05-02T17:09:26.054Z,25.80
2018-05-02T17:11:54.326Z,26.10
2018-05-02T17:14:22.675Z,28.50
2018-05-02T17:16:51.282Z,28.70
2018-05-02T17:19:20.597Z,27.30
2018-05-02T17:21:49.182Z,27.30
2018-05-02T17:24:18.022Z,26.20
2018-05-02T17:26:46.670Z,27.20
2018-05-02T17:29:15.053Z,26.80
2018-05-02T17:31:43.537Z,27.50
2018-05-02T17:34:11.906Z,27.30
2018-05-02T17:36:40.744Z,28.90
2018-05-02T17:39:09.172Z,27.20
2018-05-02T17:41:37.631Z,28.40
2018-05-02T17:44:06.260Z,27.20
2018-05-02T17:46:34.796Z,27.60
2018-05-02T17:49:03.270Z,28.20
2018-05-02T17:51:31.958Z,28.20
2018-05-02T17:54:00.375Z,28.50
2018-05-02T17:56:29.112Z,29.00
2018-05-02T17:58:57.696Z,29.40
2018-05-02T18:01:26.207Z,29.40
2018-05-02T18:03:54.642Z,29.80
2018-05-02T18:06:23.970Z,30.00
2018-05-02T18:08:52.335Z,30.00
2018-05-02T18:11:20.916Z,30.40
2018-05-02T18:13:56.085Z,30.80
2018-05-02T18:16:24.441Z,31.10
2018-05-02T18:18:52.915Z,31.10
2018-05-02T18:21:21.755Z,31.50
2018-05-02T18:23:50.087Z,31.50
2018-05-02T18:26:18.451Z,32.10
2018-05-02T18:28:47.658Z,32.40
2018-05-02T18:31:16.178Z,32.40
2018-05-02T18:33:44.716Z,32.40
2018-05-02T18:36:13.273Z,32.20
2018-05-02T18:38:43.197Z,32.70
2018-05-02T18:41:12.437Z,33.00
2018-05-02T18:43:40.998Z,33.00
2018-05-02T18:46:09.521Z,32.70
2018-05-02T18:48:37.898Z,32.80
2018-05-02T18:51:06.425Z,32.90
2018-05-02T18:53:35.638Z,33.60
2018-05-02T18:56:03.964Z,33.60
2018-05-02T18:58:32.335Z,34.20
2018-05-02T19:01:01.571Z,34.60
2018-05-02T19:03:30.203Z,34.60
2018-05-02T19:05:58.800Z,34.60
2018-05-02T19:08:27.238Z,34.30
2018-05-02T19:10:55.945Z,34.60
2018-05-02T19:13:24.451Z,34.80
2018-05-02T19:15:53.040Z,35.10
2018-05-02T19:18:27.040Z,35.40
2018-05-02T19:20:55.386Z,35.30
2018-05-02T19:23:23.759Z,35.30
2018-05-02T19:25:57.568Z,35.50
2018-05-02T19:28:25.977Z,35.30
2018-05-02T19:31:00.086Z,35.20
2018-05-02T19:33:34.025Z,35.70
2018-05-02T19:36:02.398Z,36.00
2018-05-02T19:38:30.794Z,36.00
2018-05-02T19:41:05.408Z,36.00
2018-05-02T19:43:39.262Z,36.00
2018-05-02T19:46:07.743Z,36.00
2018-05-02T19:48:36.213Z,35.90
2018-05-02T19:51:11.095Z,36.60
2018-05-02T19:53:39.421Z,36.60
2018-05-02T19:56:08.770Z,36.70
2018-05-02T19:58:37.235Z,36.50
2018-05-02T20:01:11.159Z,36.60
2018-05-02T20:03:39.816Z,36.90
2018-05-02T20:06:08.237Z,36.90
2018-05-02T20:08:42.171Z,37.20
2018-05-02T20:11:16.150Z,37.00
2018-05-02T20:13:50.355Z,36.90
2018-05-02T20:16:18.779Z,36.80
2018-05-02T20:18:47.501Z,37.10
2018-05-02T20:21:15.933Z,37.00
2018-05-02T20:23:44.363Z,37.30
2018-05-02T20:26:12.849Z,37.00
2018-05-02T20:28:41.198Z,37.20
2018-05-02T20:31:09.516Z,37.40
2018-05-02T20:33:37.881Z,37.40
2018-05-02T20:36:08.172Z,37.50
2018-05-02T20:38:38.499Z,37.80
2018-05-02T20:41:06.878Z,37.80
2018-05-02T20:43:35.682Z,37.80
2018-05-02T20:46:04.055Z,37.90
2018-05-02T20:48:32.410Z,38.20
2018-05-02T20:51:01.479Z,38.30
2018-05-02T20:53:29.843Z,38.20
2018-05-02T20:55:58.193Z,38.40
2018-05-02T20:58:26.572Z,38.20
2018-05-02T21:00:55.258Z,38.30
2018-05-02T21:03:23.613Z,38.10
2018-05-02T21:05:52.010Z,38.20
2018-05-02T21:08:21.303Z,38.60
2018-05-02T21:10:49.821Z,38.50
2018-05-02T21:13:18.324Z,38.60
2018-05-02T21:15:46.698Z,39.20
2018-05-02T21:18:15.055Z,38.90
2018-05-02T21:20:43.410Z,39.10
2018-05-02T21:23:11.901Z,39.80
2018-05-02T21:25:40.441Z,38.90
2018-05-02T21:28:09.566Z,39.20
2018-05-02T21:30:38.119Z,39.20
2018-05-02T21:33:07.202Z,39.50
2018-05-02T21:35:36.541Z,40.00
2018-05-02T21:38:04.967Z,40.00
2018-05-02T21:40:33.498Z,39.40
2018-05-02T21:43:02.031Z,39.50
2018-05-02T21:45:30.473Z,39.50
2018-05-02T21:47:58.818Z,39.40
2018-05-02T21:50:27.922Z,40.00
2018-05-02T21:52:56.257Z,40.00
2018-05-02T21:55:24.667Z,40.00
2018-05-02T21:57:53.760Z,40.40
2018-05-02T22:00:22.881Z,40.40
2018-05-02T22:02:51.276Z,40.40
2018-05-02T22:05:19.694Z,40.70
2018-05-02T22:07:48.052Z,40.90
2018-05-02T22:10:16.346Z,41.00
2018-05-02T22:12:45.021Z,41.20
2018-05-02T22:15:13.360Z,41.40
2018-05-02T22:17:41.661Z,42.00
2018-05-02T22:20:10.093Z,42.30
2018-05-02T22:22:38.576Z,41.80
2018-05-02T22:25:07.927Z,41.40
2018-05-02T22:27:36.317Z,41.40
2018-05-02T22:30:04.645Z,41.20
2018-05-02T22:32:32.939Z,41.50
2018-05-02T22:35:01.282Z,41.80
2018-05-02T22:37:30.341Z,41.70
2018-05-02T22:39:58.672Z,41.70
2018-05-02T22:42:27.013Z,41.80
2018-05-02T22:44:55.367Z,42.30
2018-05-02T22:47:23.739Z,42.50
2018-05-02T22:49:52.022Z,42.40
2018-05-02T22:52:20.462Z,42.40
2018-05-02T22:54:49.063Z,42.20
2018-05-02T22:57:17.371Z,42.30
2018-05-02T22:59:45.849Z,42.50
2018-05-02T23:02:14.187Z,42.40
2018-05-02T23:04:42.552Z,42.90
2018-05-02T23:07:10.838Z,43.20
2018-05-02T23:09:39.149Z,43.30
2018-05-02T23:12:07.740Z,43.70
2018-05-02T23:14:36.050Z,44.10
2018-05-02T23:17:04.457Z,44.60
2018-05-02T23:19:33.016Z,44.60
2018-05-02T23:22:02.149Z,45.20
2018-05-02T23:24:30.622Z,45.20
2018-05-02T23:26:59.156Z,45.60
2018-05-02T23:29:27.481Z,45.80
2018-05-02T23:31:55.772Z,45.40
2018-05-02T23:34:24.123Z,45.20
2018-05-02T23:36:52.495Z,44.90
2018-05-02T23:39:20.824Z,45.00
2018-05-02T23:41:49.988Z,46.20
2018-05-02T23:44:18.291Z,46.00
2018-05-02T23:46:46.738Z,46.00
2018-05-02T23:49:15.029Z,45.70
2018-05-02T23:51:43.551Z,46.10
2018-05-02T23:54:11.942Z,46.50
2018-05-02T23:56:41.158Z,46.60
2018-05-02T23:59:09.460Z,46.30
